Clinton Municipal Airport


Codes: KCWI/CWI
Name: Clinton Municipal Airport
City: Clinton
Country: United States
Elevation: 708 ft.
Wikipedia:

Photos at Clinton Municipal Airport


   Photos courtesy of SpottingLog. You can add your own sightings and photos by signing up for a free trial today.



No photos found.

Weather at Clinton Municipal Airport


Time (UTC)DescriptionTempratureWindCloud coverageVisibilityPressureHumidity
21-Jun-2024 15:00Broken Clouds24°C7 mph, S67%10000m1022hPa85%
21-Jun-2024 18:00Scattered Clouds27°C9 mph, S33%10000m1020hPa73%
21-Jun-2024 21:00Clear Sky30°C9 mph, SW7%10000m1017hPa64%
22-Jun-2024 00:00Light Rain27°C7 mph, SW16%10000m1017hPa78%
22-Jun-2024 03:00Clear Sky23°C7 mph, S9%10000m1016hPa88%
22-Jun-2024 06:00Scattered Clouds22°C7 mph, S28%10000m1016hPa92%
22-Jun-2024 09:00Light Rain22°C7 mph, S78%10000m1014hPa92%
22-Jun-2024 12:00Overcast Clouds23°C11 mph, S90%10000m1013hPa87%
22-Jun-2024 15:00Overcast Clouds26°C13 mph, SW99%10000m1012hPa78%
22-Jun-2024 18:00Overcast Clouds29°C18 mph, SW100%10000m1009hPa70%
22-Jun-2024 21:00Light Rain29°C18 mph, SW74%10000m1008hPa73%
23-Jun-2024 00:00Light Rain26°C18 mph, SW71%10000m1006hPa84%
23-Jun-2024 03:00Moderate Rain24°C11 mph, SW100%10000m1006hPa92%
23-Jun-2024 06:00Light Rain22°C7 mph, NW99%10000m1007hPa97%
23-Jun-2024 09:00Scattered Clouds20°C7 mph, NW36%10000m1007hPa98%
23-Jun-2024 12:00Scattered Clouds19°C9 mph, NW32%10000m1009hPa95%
23-Jun-2024 15:00Broken Clouds21°C11 mph, NW78%10000m1011hPa80%
23-Jun-2024 18:00Broken Clouds24°C9 mph, NW72%10000m1011hPa73%
23-Jun-2024 21:00Clear Sky26°C11 mph, NW0%10000m1010hPa68%
24-Jun-2024 00:00Clear Sky25°C4 mph, NW0%10000m1010hPa77%
24-Jun-2024 03:00Clear Sky21°C4 mph, SW0%10000m1010hPa89%
24-Jun-2024 06:00Clear Sky20°C4 mph, SW0%10000m1010hPa88%
24-Jun-2024 09:00Few Clouds20°C7 mph, SW21%10000m1010hPa89%
24-Jun-2024 12:00Light Rain21°C7 mph, S52%10000m1010hPa91%
24-Jun-2024 15:00Light Rain25°C7 mph, S24%10000m1010hPa81%
24-Jun-2024 18:00Few Clouds30°C9 mph, S20%10000m1008hPa68%
24-Jun-2024 21:00Clear Sky31°C11 mph, SW1%10000m1006hPa66%
25-Jun-2024 00:00Clear Sky29°C9 mph, S4%10000m1005hPa80%
25-Jun-2024 03:00Clear Sky26°C7 mph, S3%10000m1005hPa92%
25-Jun-2024 06:00Scattered Clouds25°C9 mph, SW31%10000m1005hPa94%
25-Jun-2024 09:00Overcast Clouds23°C2 mph, S98%10000m1004hPa94%
25-Jun-2024 12:00Broken Clouds24°C4 mph, E67%10000m1005hPa91%
25-Jun-2024 15:00Broken Clouds29°C11 mph, S68%10000m1004hPa74%
25-Jun-2024 18:00Light Rain31°C13 mph, W77%10000m1004hPa70%
25-Jun-2024 21:00Moderate Rain28°C7 mph, SW100%10000m1003hPa82%
26-Jun-2024 00:00Moderate Rain20°C9 mph, SW100%10000m1004hPa90%
26-Jun-2024 03:00Light Rain20°C7 mph, W100%10000m1005hPa94%
26-Jun-2024 06:00Overcast Clouds21°C7 mph, W98%10000m1006hPa96%
26-Jun-2024 09:00Scattered Clouds17°C7 mph, NW36%10000m1008hPa88%
26-Jun-2024 12:00Scattered Clouds18°C9 mph, NW40%10000m1008hPa92%